Hovedside
METAR-TAF:

METAR-TAF

Lufthavner :

Kotoka internasjonale lufthavn

Accra, Ghana

breddegrad: 05-36N, lengdegrad: 000-10W, høyde over havet: 68 m

Gjeldene værobservasjon

Denne rapporten ble laget for 1 time og 14 minutter siden, klokken 17:00 UTC
Vind 17 kt fra Sør-sørvest
Temperatur 26°C
Luftfuktighet 84%
Trykk 1013 hPa
Sikt 10 km eller mer
Brutte skyer i en høyde av 2500 ft

METAR: DGAA 151700Z 21017KT 9999 BKN025 26/23 Q1013 NOSIG

Tid: 18:14 (18:14 UTC)

Varsel

Denne rapporten ble laget for 1 time og 14 minutter siden, klokken 17:00 UTC
Varsel gyldig fra 15. klokken 18 UTC til 16. klokken 24 UTC
Vind 10 kt fra Sør-sørvest
Sikt 10 km eller mer
Brutte skyer i en høyde av 2500 ft
Blir
fra 15. klokken 23 UTC til 16. klokken 01 UTC
Vind 8 kt fra Vest
Blir
fra 16. klokken 11 UTC til 16. klokken 13 UTC
Vind 10 kt fra Sør
Brutte skyer i en høyde av 1200 ft

TAF: DGAA 151700Z 1518/1624 21010KT 9999 BKN025 BECMG 1523/1601 27008KT BECMG 1611/1613 18010KT BKN012

Værobservasjoner og værvarsel for over 4000 flyplasser (METAR- og TAF-rapporter).

Tilgjengelige stasjoner er representert av de røde og gule prikkene på kartet.

Hold musepekeren over prikken for å se navnet på stasjonen.

Klikk så for å se værobservasjoner og -varsler.

For å forandre kartet kan du klikke på den grønne knappen med svart kryss for å zoome inn, på den grønne knappen med strek for å zoome ut, eller på de grønne pilene for å se tilstøtende kart.


METAR-TAF: